Private Wetterstation Wechselburg
Wetterdaten: Dienstag, 10.09.2013
Datum Zeit Temp. +2m Bodentemp. Temp.+5cm Temp. Wind Windchill X Diff Temp. Feuchte +2m Feuchte +5cm Sonnenschein Luftdruck Regen Wind Richtung Richtung Sonnenschein UV Taupunkt Windchill Windben
10.09.2013 00:00 7,5 C 23,3 C 9,3 C 7,7 C 7,7 C 0,2 C 90 % 90 % 0 % 1016,4 hPa 0,0 l/m 0,0 km/h (0 Bft) W 270 0 min 0,0 UV-I 6,0 C 7,7 C 0,0 km/h (0 Bft)
10.09.2013 00:05 7,6 C 23,3 C 9,3 C 7,7 C 7,7 C 0,1 C 90 % 90 % 0 % 1016,4 hPa 0,0 l/m 0,0 km/h (0 Bft) W 270 0 min 0,0 UV-I 6,1 C 7,7 C 0,0 km/h (0 Bft)
10.09.2013 00:10 7,6 C 23,2 C 9,2 C 7,8 C 7,8 C 0,2 C 90 % 90 % 0 % 1016,4 hPa 0,0 l/m 0,0 km/h (0 Bft) W 270 0 min 0,0 UV-I 6,1 C 7,8 C 0,0 km/h (0 Bft)
10.09.2013 00:15 7,6 C 23,2 C 9,2 C 7,8 C 7,8 C 0,2 C 90 % 90 % 0 % 1016,7 hPa 0,0 l/m 0,0 km/h (0 Bft) W 270 0 min 0,0 UV-I 6,1 C 7,8 C 0,0 km/h (0 Bft)
10.09.2013 00:20 7,5 C 23,2 C 9,3 C 7,5 C 7,5 C 0,0 C 90 % 90 % 0 % 1016,7 hPa 0,0 l/m 0,0 km/h (0 Bft) W 270 0 min 0,0 UV-I 6,0 C 7,5 C 0,0 km/h (0 Bft)
10.09.2013 00:25 7,5 C 23,2 C 9,2 C 7,5 C 7,4 C 0,0 C 90 % 90 % 0 % 1016,7 hPa 0,0 l/m 0,0 km/h (0 Bft) W 270 0 min 0,0 UV-I 6,0 C 7,4 C 0,0 km/h (0 Bft)
10.09.2013 00:30 7,3 C 23,2 C 9,2 C 7,4 C 7,4 C 0,1 C 90 % 90 % 0 % 1016,7 hPa 0,0 l/m 0,0 km/h (0 Bft) W 270 0 min 0,0 UV-I 5,8 C 7,4 C 0,0 km/h (0 Bft)
10.09.2013 00:35 7,4 C 23,2 C 9,1 C 7,5 C 7,5 C 0,1 C 90 % 90 % 0 % 1016,6 hPa 0,0 l/m 0,0 km/h (0 Bft) W 270 0 min 0,0 UV-I 5,9 C 7,5 C 0,0 km/h (0 Bft)
10.09.2013 00:40 7,3 C 23,1 C 9,1 C 7,4 C 7,4 C 0,1 C 90 % 90 % 0 % 1016,6 hPa 0,0 l/m 0,0 km/h (0 Bft) W-SW 247 0 min 0,0 UV-I 5,8 C 7,4 C 0,0 km/h (0 Bft)
10.09.2013 00:45 7,3 C 23,1 C 9,1 C 7,3 C 7,3 C 0,0 C 90 % 90 % 0 % 1016,6 hPa 0,0 l/m 0,0 km/h (0 Bft) SW 225 0 min 0,0 UV-I 5,8 C 7,3 C 0,0 km/h (0 Bft)
10.09.2013 00:50 7,1 C 23,1 C 8,8 C 7,1 C 7,0 C 0,0 C 90 % 90 % 0 % 1016,6 hPa 0,0 l/m 0,0 km/h (0 Bft) W-SW 247 0 min 0,0 UV-I 5,6 C 7,0 C 0,0 km/h (0 Bft)
10.09.2013 00:55 7,1 C 23,1 C 8,8 C 7,0 C 6,8 C 0,0 C 90 % 90 % 0 % 1016,5 hPa 0,0 l/m 0,0 km/h (0 Bft) W-SW 247 0 min 0,0 UV-I 5,6 C 6,8 C 0,0 km/h (0 Bft)
10.09.2013 01:00 6,8 C 23,1 C 8,6 C 6,8 C 6,7 C 0,0 C 90 % 89 % 0 % 1016,5 hPa 0,0 l/m 0,0 km/h (0 Bft) O-NO 67 0 min 0,0 UV-I 5,3 C 6,7 C 0,0 km/h (0 Bft)
10.09.2013 01:05 6,9 C 23,1 C 8,6 C 6,9 C 6,8 C 0,0 C 90 % 89 % 0 % 1016,5 hPa 0,0 l/m 0,0 km/h (0 Bft) S 180 0 min 0,0 UV-I 5,4 C 6,8 C 0,0 km/h (0 Bft)
10.09.2013 01:10 6,7 C 23,1 C 8,7 C 6,8 C 6,8 C 0,1 C 90 % 89 % 0 % 1016,5 hPa 0,0 l/m 0,0 km/h (0 Bft) SW 225 0 min 0,0 UV-I 5,2 C 6,8 C 0,0 km/h (0 Bft)
10.09.2013 01:15 6,7 C 23,0 C 8,6 C 6,7 C 6,7 C 0,0 C 90 % 89 % 0 % 1015,9 hPa 0,0 l/m 0,0 km/h (0 Bft) W-SW 247 0 min 0,0 UV-I 5,2 C 6,7 C 0,0 km/h (0 Bft)
10.09.2013 01:20 6,5 C 23,0 C 8,5 C 6,6 C 6,6 C 0,1 C 90 % 89 % 0 % 1015,9 hPa 0,0 l/m 0,0 km/h (0 Bft) W-SW 247 0 min 0,0 UV-I 5,0 C 6,6 C 0,0 km/h (0 Bft)
10.09.2013 01:25 6,5 C 23,0 C 8,5 C 6,6 C 6,6 C 0,1 C 90 % 89 % 0 % 1015,9 hPa 0,0 l/m 0,0 km/h (0 Bft) W-SW 247 0 min 0,0 UV-I 5,0 C 6,6 C 0,0 km/h (0 Bft)
10.09.2013 01:30 6,4 C 23,0 C 8,5 C 6,5 C 6,5 C 0,1 C 90 % 89 % 0 % 1015,9 hPa 0,0 l/m 0,0 km/h (0 Bft) W 270 0 min 0,0 UV-I 4,9 C 6,5 C 0,0 km/h (0 Bft)
10.09.2013 01:35 6,4 C 23,0 C 8,4 C 6,5 C 6,5 C 0,1 C 90 % 89 % 0 % 1016,6 hPa 0,0 l/m 0,0 km/h (0 Bft) W 270 0 min 0,0 UV-I 4,9 C 6,5 C 0,0 km/h (0 Bft)
10.09.2013 01:40 6,4 C 23,0 C 8,3 C 6,4 C 6,4 C 0,0 C 90 % 89 % 0 % 1016,6 hPa 0,0 l/m 0,0 km/h (0 Bft) W 270 0 min 0,0 UV-I 4,9 C 6,4 C 0,0 km/h (0 Bft)
10.09.2013 01:45 6,4 C 23,0 C 8,3 C 6,5 C 6,5 C 0,1 C 90 % 89 % 0 % 1016,6 hPa 0,0 l/m 0,0 km/h (0 Bft) W-SW 247 0 min 0,0 UV-I 4,9 C 6,5 C 0,0 km/h (0 Bft)
10.09.2013 01:50 6,4 C 23,0 C 8,4 C 6,8 C 6,8 C 0,4 C 90 % 89 % 0 % 1016,6 hPa 0,0 l/m 0,0 km/h (0 Bft) W 270 0 min 0,0 UV-I 4,9 C 6,8 C 0,0 km/h (0 Bft)
10.09.2013 01:55 6,5 C 22,9 C 8,4 C 6,9 C 6,9 C 0,4 C 90 % 89 % 0 % 1016,3 hPa 0,0 l/m 0,0 km/h (0 Bft) W-NW 292 0 min 0,0 UV-I 5,0 C 6,9 C 0,0 km/h (0 Bft)
10.09.2013 02:00 6,7 C 22,9 C 8,5 C 7,3 C 7,3 C 0,6 C 91 % 89 % 0 % 1016,3 hPa 0,0 l/m 0,0 km/h (0 Bft) NW 315 0 min 0,0 UV-I 5,3 C 7,3 C 0,0 km/h (0 Bft)
10.09.2013 02:05 6,8 C 22,9 C 8,7 C 7,5 C 7,5 C 0,7 C 91 % 89 % 0 % 1016,3 hPa 0,0 l/m 0,0 km/h (0 Bft) NW 315 0 min 0,0 UV-I 5,4 C 7,5 C 0,0 km/h (0 Bft)
10.09.2013 02:10 7,1 C 22,9 C 8,8 C 7,8 C 7,8 C 0,7 C 91 % 90 % 0 % 1016,3 hPa 0,0 l/m 0,0 km/h (0 Bft) NW 315 0 min 0,0 UV-I 5,7 C 7,8 C 0,0 km/h (0 Bft)
10.09.2013 02:15 7,1 C 22,9 C 8,9 C 8,0 C 8,0 C 0,9 C 91 % 90 % 0 % 1016,1 hPa 0,0 l/m 0,0 km/h (0 Bft) NW 315 0 min 0,0 UV-I 5,7 C 8,0 C 0,0 km/h (0 Bft)
10.09.2013 02:20 7,3 C 22,9 C 9,0 C 8,1 C 8,1 C 0,8 C 91 % 90 % 0 % 1016,1 hPa 0,0 l/m 0,0 km/h (0 Bft) NW 315 0 min 0,0 UV-I 5,9 C 8,1 C 0,0 km/h (0 Bft)
10.09.2013 02:25 7,3 C 22,9 C 9,1 C 8,2 C 8,2 C 0,9 C 91 % 90 % 0 % 1016,1 hPa 0,0 l/m 0,0 km/h (0 Bft) NW 315 0 min 0,0 UV-I 5,9 C 8,2 C 0,0 km/h (0 Bft)
10.09.2013 02:30 7,5 C 22,9 C 9,2 C 8,4 C 8,4 C 0,9 C 91 % 90 % 0 % 1016,1 hPa 0,0 l/m 0,0 km/h (0 Bft) N-NW 337 0 min 0,0 UV-I 6,1 C 8,4 C 0,0 km/h (0 Bft)
10.09.2013 02:35 7,6 C 22,9 C 9,3 C 8,5 C 8,5 C 0,9 C 91 % 90 % 0 % 1015,4 hPa 0,0 l/m 0,0 km/h (0 Bft) NW 315 0 min 0,0 UV-I 6,2 C 8,5 C 0,0 km/h (0 Bft)
10.09.2013 02:40 7,7 C 22,9 C 9,4 C 8,6 C 8,6 C 0,9 C 91 % 90 % 0 % 1015,4 hPa 0,0 l/m 0,0 km/h (0 Bft) NW 315 0 min 0,0 UV-I 6,3 C 8,6 C 0,0 km/h (0 Bft)
10.09.2013 02:45 7,7 C 22,9 C 9,5 C 8,7 C 8,7 C 1,0 C 91 % 90 % 0 % 1015,4 hPa 0,0 l/m 0,0 km/h (0 Bft) NW 315 0 min 0,0 UV-I 6,3 C 8,7 C 0,0 km/h (0 Bft)
10.09.2013 02:50 7,9 C 22,9 C 9,5 C 8,8 C 8,8 C 0,9 C 92 % 90 % 0 % 1015,4 hPa 0,0 l/m 0,0 km/h (0 Bft) W-NW 292 0 min 0,0 UV-I 6,7 C 8,8 C 0,0 km/h (0 Bft)
10.09.2013 02:55 7,9 C 22,9 C 9,6 C 8,8 C 8,8 C 0,9 C 91 % 90 % 0 % 1015,8 hPa 0,0 l/m 0,0 km/h (0 Bft) W-SW 247 0 min 0,0 UV-I 6,5 C 8,8 C 0,0 km/h (0 Bft)
10.09.2013 03:00 8,0 C 22,9 C 9,7 C 8,9 C 8,9 C 0,9 C 91 % 90 % 0 % 1015,8 hPa 0,0 l/m 0,0 km/h (0 Bft) NW 315 0 min 0,0 UV-I 6,6 C 8,9 C 0,0 km/h (0 Bft)
10.09.2013 03:05 8,0 C 22,9 C 9,7 C 9,0 C 9,0 C 1,0 C 91 % 90 % 0 % 1015,8 hPa 0,0 l/m 0,0 km/h (0 Bft) W 270 0 min 0,0 UV-I 6,6 C 9,0 C 0,0 km/h (0 Bft)
10.09.2013 03:10 8,1 C 22,9 C 9,6 C 9,0 C 9,0 C 0,9 C 91 % 90 % 0 % 1015,8 hPa 0,0 l/m 0,0 km/h (0 Bft) W-NW 292 0 min 0,0 UV-I 6,7 C 9,0 C 0,0 km/h (0 Bft)
10.09.2013 03:15 8,3 C 22,8 C 9,8 C 9,1 C 9,1 C 0,8 C 92 % 90 % 0 % 1015,7 hPa 0,0 l/m 0,0 km/h (0 Bft) N-NW 337 0 min 0,0 UV-I 7,1 C 9,1 C 0,0 km/h (0 Bft)
10.09.2013 03:20 8,2 C 22,8 C 9,9 C 9,1 C 9,1 C 0,9 C 92 % 90 % 0 % 1015,7 hPa 0,0 l/m 0,0 km/h (0 Bft) NW 315 0 min 0,0 UV-I 7,0 C 9,1 C 0,0 km/h (0 Bft)
10.09.2013 03:25 8,3 C 22,8 C 9,8 C 9,2 C 9,2 C 0,9 C 92 % 90 % 0 % 1015,7 hPa 0,0 l/m 0,0 km/h (0 Bft) N-NW 337 0 min 0,0 UV-I 7,1 C 9,2 C 0,0 km/h (0 Bft)
10.09.2013 03:30 8,4 C 22,8 C 9,9 C 9,3 C 9,3 C 0,9 C 91 % 90 % 0 % 1015,7 hPa 0,0 l/m 0,0 km/h (0 Bft) NW 315 0 min 0,0 UV-I 7,0 C 9,3 C 0,0 km/h (0 Bft)
10.09.2013 03:35 8,5 C 22,8 C 10,0 C 9,3 C 9,3 C 0,8 C 92 % 90 % 0 % 1015,3 hPa 0,0 l/m 0,0 km/h (0 Bft) W-NW 292 0 min 0,0 UV-I 7,3 C 9,3 C 0,0 km/h (0 Bft)
10.09.2013 03:40 8,5 C 22,8 C 10,1 C 9,4 C 9,4 C 0,9 C 92 % 90 % 0 % 1015,3 hPa 0,0 l/m 0,0 km/h (0 Bft) W-NW 292 0 min 0,0 UV-I 7,3 C 9,4 C 0,0 km/h (0 Bft)
10.09.2013 03:45 8,5 C 22,8 C 10,0 C 9,4 C 9,4 C 0,9 C 92 % 90 % 0 % 1015,3 hPa 0,0 l/m 0,0 km/h (0 Bft) NO 45 0 min 0,0 UV-I 7,3 C 9,4 C 0,0 km/h (0 Bft)
10.09.2013 03:50 8,7 C 22,8 C 10,1 C 9,5 C 9,5 C 0,8 C 92 % 90 % 0 % 1015,3 hPa 0,0 l/m 0,0 km/h (0 Bft) W 270 0 min 0,0 UV-I 7,5 C 9,5 C 0,0 km/h (0 Bft)
10.09.2013 03:55 8,7 C 22,8 C 10,3 C 9,5 C 9,5 C 0,8 C 92 % 90 % 0 % 1015,2 hPa 0,0 l/m 0,0 km/h (0 Bft) W 270 0 min 0,0 UV-I 7,5 C 9,5 C 0,0 km/h (0 Bft)
10.09.2013 04:00 8,7 C 22,8 C 10,3 C 9,6 C 9,6 C 0,9 C 92 % 90 % 0 % 1015,2 hPa 0,0 l/m 0,0 km/h (0 Bft) W-NW 292 0 min 0,0 UV-I 7,5 C 9,6 C 0,0 km/h (0 Bft)
10.09.2013 04:05 8,7 C 22,8 C 10,3 C 9,6 C 9,6 C 0,9 C 92 % 90 % 0 % 1015,2 hPa 0,0 l/m 0,0 km/h (0 Bft) W 270 0 min 0,0 UV-I 7,5 C 9,6 C 0,0 km/h (0 Bft)
10.09.2013 04:10 8,9 C 22,8 C 10,4 C 9,7 C 9,7 C 0,8 C 92 % 90 % 0 % 1015,2 hPa 0,0 l/m 0,0 km/h (0 Bft) NO 45 0 min 0,0 UV-I 7,7 C 9,7 C 0,0 km/h (0 Bft)
10.09.2013 04:15 8,8 C 22,8 C 10,3 C 9,7 C 9,7 C 0,9 C 92 % 90 % 0 % 1014,8 hPa 0,0 l/m 0,0 km/h (0 Bft) N-NO 22 0 min 0,0 UV-I 7,6 C 9,7 C 0,0 km/h (0 Bft)
10.09.2013 04:20 8,8 C 22,8 C 10,4 C 9,7 C 9,7 C 0,9 C 92 % 90 % 0 % 1014,8 hPa 0,0 l/m 0,0 km/h (0 Bft) NW 315 0 min 0,0 UV-I 7,6 C 9,7 C 0,0 km/h (0 Bft)
10.09.2013 04:25 8,8 C 22,8 C 10,5 C 9,8 C 9,8 C 1,0 C 92 % 90 % 0 % 1014,8 hPa 0,0 l/m 0,0 km/h (0 Bft) NW 315 0 min 0,0 UV-I 7,6 C 9,8 C 0,0 km/h (0 Bft)
10.09.2013 04:30 8,9 C 22,8 C 10,4 C 9,7 C 9,7 C 0,8 C 92 % 90 % 0 % 1014,8 hPa 0,0 l/m 0,0 km/h (0 Bft) N-NO 22 0 min 0,0 UV-I 7,7 C 9,7 C 0,0 km/h (0 Bft)
10.09.2013 04:35 8,9 C 22,8 C 10,5 C 9,8 C 9,8 C 0,9 C 92 % 90 % 0 % 1014,8 hPa 0,0 l/m 0,0 km/h (0 Bft) N-NO 22 0 min 0,0 UV-I 7,7 C 9,8 C 0,0 km/h (0 Bft)
10.09.2013 04:40 9,1 C 22,8 C 10,5 C 9,8 C 9,8 C 0,7 C 92 % 90 % 0 % 1014,8 hPa 0,0 l/m 0,0 km/h (0 Bft) W-SW 247 0 min 0,0 UV-I 7,9 C 9,8 C 0,0 km/h (0 Bft)
10.09.2013 04:45 9,0 C 22,8 C 10,7 C 9,8 C 9,8 C 0,8 C 92 % 90 % 0 % 1014,8 hPa 0,0 l/m 0,0 km/h (0 Bft) W-SW 247 0 min 0,0 UV-I 7,8 C 9,8 C 0,0 km/h (0 Bft)
10.09.2013 04:50 9,1 C 22,8 C 10,7 C 9,8 C 9,8 C 0,7 C 92 % 90 % 0 % 1014,8 hPa 0,0 l/m 0,0 km/h (0 Bft) NW 315 0 min 0,0 UV-I 7,9 C 9,8 C 0,0 km/h (0 Bft)
10.09.2013 04:55 9,1 C 22,8 C 10,7 C 9,9 C 9,9 C 0,8 C 92 % 90 % 0 % 1014,1 hPa 0,0 l/m 0,0 km/h (0 Bft) N-NW 337 0 min 0,0 UV-I 7,9 C 9,9 C 0,0 km/h (0 Bft)
10.09.2013 05:00 9,1 C 22,7 C 10,6 C 9,9 C 9,9 C 0,8 C 92 % 90 % 0 % 1014,1 hPa 0,0 l/m 0,2 km/h (0 Bft) W 270 0 min 0,0 UV-I 7,9 C 9,9 C 2,4 km/h (1 Bft)
10.09.2013 05:05 9,1 C 22,7 C 10,7 C 10,0 C 10,0 C 0,9 C 92 % 90 % 0 % 1014,1 hPa 0,0 l/m 0,3 km/h (0 Bft) S-SO 157 0 min 0,0 UV-I 7,9 C 10,0 C 0,0 km/h (0 Bft)
10.09.2013 05:10 9,2 C 22,7 C 10,8 C 10,0 C 10,0 C 0,8 C 92 % 90 % 0 % 1014,1 hPa 0,0 l/m 0,3 km/h (0 Bft) W 270 0 min 0,0 UV-I 8,0 C 10,0 C 2,9 km/h (1 Bft)
10.09.2013 05:15 9,2 C 22,7 C 10,8 C 10,0 C 10,0 C 0,8 C 92 % 90 % 0 % 1014,2 hPa 0,0 l/m 0,6 km/h (0 Bft) W 270 0 min 0,0 UV-I 8,0 C 10,0 C 2,1 km/h (1 Bft)
10.09.2013 05:20 9,3 C 22,7 C 10,9 C 10,0 C 10,0 C 0,7 C 92 % 90 % 0 % 1014,2 hPa 0,0 l/m 0,8 km/h (0 Bft) S 180 0 min 0,0 UV-I 8,1 C 10,0 C 4,2 km/h (1 Bft)
10.09.2013 05:25 9,2 C 22,7 C 10,8 C 10,1 C 10,1 C 0,9 C 92 % 90 % 0 % 1014,2 hPa 0,0 l/m 1,0 km/h (0 Bft) W-SW 247 0 min 0,0 UV-I 8,0 C 10,1 C 1,6 km/h (1 Bft)
10.09.2013 05:30 9,3 C 22,7 C 10,9 C 10,1 C 10,1 C 0,8 C 92 % 90 % 0 % 1014,2 hPa 0,0 l/m 0,6 km/h (0 Bft) NW 315 0 min 0,0 UV-I 8,1 C 10,1 C 0,0 km/h (0 Bft)
10.09.2013 05:35 9,3 C 22,6 C 10,9 C 10,1 C 10,1 C 0,8 C 92 % 90 % 0 % 1013,9 hPa 0,0 l/m 0,6 km/h (0 Bft) W-SW 247 0 min 0,0 UV-I 8,1 C 10,1 C 0,0 km/h (0 Bft)
10.09.2013 05:40 9,4 C 22,6 C 11,0 C 10,2 C 10,2 C 0,8 C 92 % 90 % 0 % 1013,9 hPa 0,0 l/m 1,0 km/h (0 Bft) W-SW 247 0 min 0,0 UV-I 8,2 C 10,2 C 1,6 km/h (1 Bft)
10.09.2013 05:45 9,4 C 22,6 C 11,0 C 10,2 C 10,2 C 0,8 C 92 % 90 % 0 % 1013,9 hPa 0,0 l/m 0,8 km/h (0 Bft) W-NW 292 0 min 0,0 UV-I 8,2 C 10,2 C 0,0 km/h (0 Bft)
10.09.2013 05:50 9,5 C 22,5 C 11,1 C 10,3 C 10,3 C 0,8 C 92 % 89 % 0 % 1013,9 hPa 0,0 l/m 0,8 km/h (0 Bft) W-SW 247 0 min 0,0 UV-I 8,3 C 10,3 C 2,3 km/h (1 Bft)
10.09.2013 05:55 9,5 C 22,6 C 11,1 C 10,3 C 10,3 C 0,8 C 92 % 89 % 0 % 1013,2 hPa 0,0 l/m 0,5 km/h (0 Bft) NW 315 0 min 0,0 UV-I 8,3 C 10,3 C 0,0 km/h (0 Bft)
10.09.2013 06:00 9,5 C 22,6 C 11,1 C 10,4 C 10,4 C 0,9 C 92 % 89 % 0 % 1013,2 hPa 0,0 l/m 0,5 km/h (0 Bft) W-SW 247 0 min 0,0 UV-I 8,3 C 10,4 C 3,4 km/h (1 Bft)
10.09.2013 06:05 9,5 C 22,6 C 11,1 C 10,4 C 10,4 C 0,9 C 92 % 89 % 0 % 1013,2 hPa 0,0 l/m 0,3 km/h (0 Bft) SW 225 0 min 0,0 UV-I 8,3 C 10,4 C 0,0 km/h (0 Bft)
10.09.2013 06:10 9,5 C 22,6 C 11,2 C 10,4 C 10,4 C 0,9 C 92 % 89 % 0 % 1013,2 hPa 0,0 l/m 0,3 km/h (0 Bft) O-SO 112 0 min 0,0 UV-I 8,3 C 10,4 C 0,0 km/h (0 Bft)
10.09.2013 06:15 9,6 C 22,6 C 11,2 C 10,5 C 10,5 C 0,9 C 92 % 89 % 0 % 1013,0 hPa 0,0 l/m 0,2 km/h (0 Bft) W-SW 247 0 min 0,0 UV-I 8,4 C 10,5 C 0,0 km/h (0 Bft)
10.09.2013 06:20 9,6 C 22,6 C 11,2 C 10,5 C 10,5 C 0,9 C 92 % 89 % 0 % 1013,0 hPa 0,0 l/m 0,2 km/h (0 Bft) SW 225 0 min 0,0 UV-I 8,4 C 10,5 C 0,0 km/h (0 Bft)
10.09.2013 06:25 9,6 C 22,6 C 11,3 C 10,6 C 10,6 C 1,0 C 92 % 89 % 0 % 1013,0 hPa 0,0 l/m 0,3 km/h (0 Bft) S-SO 157 0 min 0,0 UV-I 8,4 C 10,6 C 0,0 km/h (0 Bft)
10.09.2013 06:30 9,6 C 22,6 C 11,3 C 10,6 C 10,6 C 1,0 C 92 % 89 % 0 % 1013,0 hPa 0,0 l/m 0,3 km/h (0 Bft) N-NO 22 0 min 0,0 UV-I 8,4 C 10,6 C 0,0 km/h (0 Bft)
10.09.2013 06:35 9,7 C 22,6 C 11,3 C 10,6 C 10,6 C 0,9 C 92 % 89 % 0 % 1012,7 hPa 0,0 l/m 0,2 km/h (0 Bft) NO 45 0 min 0,0 UV-I 8,5 C 10,6 C 0,0 km/h (0 Bft)
10.09.2013 06:40 9,7 C 22,7 C 11,3 C 10,6 C 10,6 C 0,9 C 92 % 89 % 0 % 1012,7 hPa 0,0 l/m 0,2 km/h (0 Bft) SW 225 0 min 0,0 UV-I 8,5 C 10,6 C 0,0 km/h (0 Bft)
10.09.2013 06:45 9,7 C 22,7 C 11,2 C 10,6 C 10,6 C 0,9 C 92 % 89 % 0 % 1012,7 hPa 0,0 l/m 0,0 km/h (0 Bft) S 180 0 min 0,0 UV-I 8,5 C 10,6 C 0,0 km/h (0 Bft)
10.09.2013 06:50 9,7 C 22,7 C 11,3 C 10,5 C 10,5 C 0,8 C 92 % 89 % 21 % 1012,7 hPa 0,0 l/m 0,0 km/h (0 Bft) SO 135 5 min 0,0 UV-I 8,5 C 10,5 C 0,0 km/h (0 Bft)
10.09.2013 06:55 9,7 C 22,7 C 11,3 C 10,5 C 10,5 C 0,8 C 92 % 89 % 21 % 1012,6 hPa 0,0 l/m 0,0 km/h (0 Bft) W-SW 247 5 min 0,0 UV-I 8,5 C 10,5 C 1,6 km/h (1 Bft)
10.09.2013 07:00 9,9 C 22,7 C 11,4 C 10,6 C 10,6 C 0,7 C 92 % 89 % 18 % 1012,6 hPa 0,0 l/m 0,0 km/h (0 Bft) W-SW 247 5 min 0,0 UV-I 8,7 C 10,6 C 0,0 km/h (0 Bft)
10.09.2013 07:05 9,9 C 22,7 C 11,3 C 10,6 C 10,6 C 0,7 C 92 % 89 % 18 % 1012,6 hPa 0,0 l/m 0,0 km/h (0 Bft) W 270 5 min 0,0 UV-I 8,7 C 10,6 C 0,0 km/h (0 Bft)
10.09.2013 07:10 9,8 C 22,7 C 11,5 C 10,6 C 10,6 C 0,8 C 92 % 89 % 21 % 1012,6 hPa 0,0 l/m 0,0 km/h (0 Bft) NO 45 5 min 0,0 UV-I 8,6 C 10,6 C 0,0 km/h (0 Bft)
10.09.2013 07:15 9,9 C 22,7 C 11,5 C 10,6 C 10,6 C 0,7 C 92 % 89 % 18 % 1012,6 hPa 0,0 l/m 0,0 km/h (0 Bft) O-SO 112 0 min 0,0 UV-I 8,7 C 10,6 C 0,0 km/h (0 Bft)
10.09.2013 07:20 9,9 C 22,7 C 11,5 C 10,7 C 10,7 C 0,8 C 92 % 89 % 21 % 1012,6 hPa 0,0 l/m 0,0 km/h (0 Bft) N-NO 22 0 min 0,0 UV-I 8,7 C 10,7 C 0,0 km/h (0 Bft)
10.09.2013 07:25 9,9 C 22,7 C 11,4 C 10,7 C 10,7 C 0,8 C 92 % 89 % 21 % 1012,6 hPa 0,0 l/m 0,0 km/h (0 Bft) S-SW 202 0 min 0,0 UV-I 8,7 C 10,7 C 0,0 km/h (0 Bft)
10.09.2013 07:30 10,0 C 22,5 C 11,5 C 10,9 C 10,9 C 0,9 C 92 % 89 % 24 % 1012,6 hPa 0,0 l/m 0,0 km/h (0 Bft) O-NO 67 0 min 0,0 UV-I 8,8 C 10,9 C 0,0 km/h (0 Bft)
10.09.2013 07:35 10,1 C 22,6 C 11,7 C 11,0 C 11,0 C 0,9 C 92 % 90 % 24 % 1012,8 hPa 0,0 l/m 0,0 km/h (0 Bft) NO 45 0 min 0,0 UV-I 8,9 C 11,0 C 0,0 km/h (0 Bft)
10.09.2013 07:40 10,3 C 22,6 C 11,8 C 11,2 C 11,2 C 0,9 C 92 % 89 % 24 % 1012,8 hPa 0,0 l/m 0,3 km/h (0 Bft) O-NO 67 0 min 0,0 UV-I 9,1 C 11,2 C 5,0 km/h (1 Bft)
10.09.2013 07:45 10,4 C 22,4 C 11,9 C 11,3 C 11,3 C 0,9 C 92 % 89 % 24 % 1012,8 hPa 0,0 l/m 1,4 km/h (1 Bft) O-NO 67 0 min 0,0 UV-I 9,2 C 11,3 C 3,4 km/h (1 Bft)
10.09.2013 07:50 10,6 C 22,5 C 12,0 C 11,7 C 11,7 C 1,1 C 91 % 89 % 29 % 1012,8 hPa 0,0 l/m 2,3 km/h (1 Bft) NO 45 0 min 0,0 UV-I 9,2 C 11,7 C 6,1 km/h (2 Bft)
10.09.2013 07:55 10,8 C 22,3 C 12,0 C 12,0 C 12,0 C 1,2 C 91 % 89 % 32 % 1012,2 hPa 0,0 l/m 1,3 km/h (1 Bft) S-SO 157 0 min 0,0 UV-I 9,4 C 12,0 C 0,0 km/h (0 Bft)
10.09.2013 08:00 10,9 C 22,2 C 12,3 C 12,2 C 12,2 C 1,3 C 91 % 89 % 34 % 1012,2 hPa 0,0 l/m 0,5 km/h (0 Bft) S 180 0 min 0,0 UV-I 9,5 C 12,2 C 1,9 km/h (1 Bft)
10.09.2013 08:05 10,9 C 22,3 C 12,3 C 12,2 C 12,2 C 1,3 C 90 % 89 % 34 % 1012,2 hPa 0,0 l/m 0,5 km/h (0 Bft) S 180 0 min 0,0 UV-I 9,3 C 12,2 C 5,0 km/h (1 Bft)
10.09.2013 08:10 11,1 C 22,1 C 12,4 C 12,5 C 12,5 C 1,4 C 89 % 89 % 37 % 1012,2 hPa 0,0 l/m 0,5 km/h (0 Bft) N-NW 337 0 min 0,0 UV-I 9,4 C 12,5 C 0,0 km/h (0 Bft)
10.09.2013 08:15 11,2 C 22,2 C 12,5 C 12,9 C 12,9 C 1,7 C 89 % 89 % 45 % 1012,6 hPa 0,0 l/m 0,6 km/h (0 Bft) S 180 0 min 0,0 UV-I 9,5 C 12,9 C 2,3 km/h (1 Bft)
10.09.2013 08:20 11,5 C 22,2 C 12,8 C 13,7 C 13,7 C 2,2 C 89 % 89 % 58 % 1012,6 hPa 0,0 l/m 0,5 km/h (0 Bft) W-SW 247 0 min 0,0 UV-I 9,8 C 13,7 C 0,0 km/h (0 Bft)
10.09.2013 08:25 11,6 C 22,2 C 12,9 C 14,1 C 14,1 C 2,5 C 89 % 89 % 66 % 1012,6 hPa 0,0 l/m 0,6 km/h (0 Bft) S-SO 157 0 min 0,0 UV-I 9,8 C 14,1 C 0,0 km/h (0 Bft)
10.09.2013 08:30 11,9 C 22,1 C 13,0 C 14,2 C 14,2 C 2,3 C 88 % 88 % 61 % 1012,6 hPa 0,0 l/m 0,3 km/h (0 Bft) S-SO 157 0 min 0,0 UV-I 10,0 C 14,2 C 1,8 km/h (1 Bft)
10.09.2013 08:35 11,9 C 22,1 C 13,1 C 14,3 C 14,3 C 2,4 C 88 % 88 % 63 % 1012,4 hPa 0,0 l/m 0,3 km/h (0 Bft) S-SO 157 0 min 0,0 UV-I 10,0 C 14,3 C 0,0 km/h (0 Bft)
10.09.2013 08:40 12,1 C 22,1 C 13,2 C 14,5 C 14,5 C 2,4 C 87 % 88 % 63 % 1012,4 hPa 0,0 l/m 0,5 km/h (0 Bft) S 180 0 min 0,0 UV-I 10,0 C 14,5 C 0,0 km/h (0 Bft)
10.09.2013 08:45 12,3 C 22,1 C 13,4 C 15,0 C 15,0 C 2,7 C 87 % 88 % 71 % 1012,4 hPa 0,0 l/m 0,5 km/h (0 Bft) O 90 0 min 0,0 UV-I 10,2 C 15,0 C 0,0 km/h (0 Bft)
10.09.2013 08:50 12,7 C 22,1 C 13,6 C 15,4 C 15,4 C 2,7 C 86 % 88 % 71 % 1012,4 hPa 0,0 l/m 1,3 km/h (1 Bft) SO 135 0 min 0,0 UV-I 10,4 C 15,4 C 9,0 km/h (2 Bft)
10.09.2013 08:55 12,9 C 22,1 C 13,9 C 16,3 C 16,3 C 3,4 C 85 % 88 % 89 % 1012,2 hPa 0,0 l/m 1,3 km/h (1 Bft) W-SW 247 5 min 0,0 UV-I 10,4 C 16,3 C 0,0 km/h (0 Bft)
10.09.2013 09:00 13,4 C 22,1 C 14,0 C 16,5 C 16,5 C 3,1 C 84 % 88 % 82 % 1012,2 hPa 0,0 l/m 1,3 km/h (1 Bft) S 180 0 min 0,0 UV-I 10,8 C 16,5 C 2,3 km/h (1 Bft)
10.09.2013 09:05 13,6 C 22,1 C 14,1 C 16,2 C 16,2 C 2,6 C 82 % 87 % 68 % 1012,2 hPa 0,0 l/m 1,6 km/h (1 Bft) W-SW 247 0 min 0,0 UV-I 10,6 C 16,2 C 3,5 km/h (1 Bft)
10.09.2013 09:10 13,9 C 22,1 C 14,0 C 15,8 C 15,8 C 1,9 C 82 % 87 % 50 % 1012,2 hPa 0,0 l/m 1,4 km/h (1 Bft) S 180 0 min 0,0 UV-I 10,9 C 15,8 C 1,6 km/h (1 Bft)
10.09.2013 09:15 13,9 C 22,1 C 14,0 C 15,8 C 15,8 C 1,9 C 82 % 87 % 50 % 1011,8 hPa 0,0 l/m 1,0 km/h (0 Bft) S-SO 157 0 min 0,0 UV-I 10,9 C 15,8 C 2,1 km/h (1 Bft)
10.09.2013 09:20 14,1 C 22,1 C 14,1 C 15,9 C 15,9 C 1,8 C 81 % 86 % 47 % 1011,8 hPa 0,0 l/m 1,1 km/h (1 Bft) SO 135 0 min 0,0 UV-I 10,9 C 15,9 C 0,0 km/h (0 Bft)
10.09.2013 09:25 14,2 C 22,1 C 14,2 C 16,0 C 16,0 C 1,8 C 80 % 86 % 47 % 1011,8 hPa 0,0 l/m 1,4 km/h (1 Bft) O-NO 67 0 min 0,0 UV-I 10,8 C 16,0 C 1,6 km/h (1 Bft)
10.09.2013 09:30 14,5 C 22,1 C 14,3 C 16,1 C 16,1 C 1,6 C 80 % 86 % 42 % 1011,8 hPa 0,0 l/m 1,0 km/h (0 Bft) W-SW 247 0 min 0,0 UV-I 11,1 C 16,1 C 0,0 km/h (0 Bft)
10.09.2013 09:35 14,5 C 22,1 C 14,4 C 16,2 C 16,2 C 1,7 C 80 % 86 % 45 % 1012,4 hPa 0,0 l/m 1,0 km/h (0 Bft) SO 135 0 min 0,0 UV-I 11,1 C 16,2 C 3,5 km/h (1 Bft)
10.09.2013 09:40 14,7 C 22,1 C 14,5 C 16,4 C 16,4 C 1,7 C 79 % 85 % 45 % 1012,4 hPa 0,0 l/m 1,0 km/h (0 Bft) SW 225 0 min 0,0 UV-I 11,1 C 16,4 C 0,0 km/h (0 Bft)
10.09.2013 09:45 14,9 C 22,1 C 14,7 C 16,8 C 16,8 C 1,9 C 79 % 85 % 50 % 1012,4 hPa 0,0 l/m 1,0 km/h (0 Bft) S-SW 202 0 min 0,0 UV-I 11,3 C 16,8 C 0,0 km/h (0 Bft)
10.09.2013 09:50 15,1 C 22,1 C 14,5 C 16,7 C 16,7 C 1,6 C 79 % 85 % 42 % 1012,4 hPa 0,0 l/m 0,8 km/h (0 Bft) S-SO 157 0 min 0,0 UV-I 11,5 C 16,7 C 2,9 km/h (1 Bft)
10.09.2013 09:55 15,0 C 22,1 C 14,5 C 16,6 C 16,6 C 1,6 C 78 % 85 % 42 % 1012,2 hPa 0,0 l/m 0,8 km/h (0 Bft) W-SW 247 0 min 0,0 UV-I 11,2 C 16,6 C 6,8 km/h (2 Bft)
10.09.2013 10:00 15,1 C 22,1 C 14,6 C 16,5 C 16,5 C 1,4 C 78 % 85 % 37 % 1012,2 hPa 0,0 l/m 1,3 km/h (1 Bft) W-SW 247 0 min 0,0 UV-I 11,3 C 16,5 C 0,0 km/h (0 Bft)
10.09.2013 10:05 15,2 C 22,1 C 14,9 C 16,9 C 16,9 C 1,7 C 78 % 85 % 45 % 1012,2 hPa 0,0 l/m 1,3 km/h (1 Bft) W-SW 247 0 min 0,0 UV-I 11,4 C 16,9 C 0,0 km/h (0 Bft)
10.09.2013 10:10 15,5 C 22,0 C 15,2 C 17,6 C 17,6 C 2,1 C 78 % 84 % 55 % 1012,2 hPa 0,0 l/m 0,8 km/h (0 Bft) S 180 0 min 0,0 UV-I 11,7 C 17,6 C 0,0 km/h (0 Bft)
10.09.2013 10:15 15,7 C 22,0 C 15,3 C 18,0 C 18,0 C 2,3 C 78 % 84 % 61 % 1012,3 hPa 0,0 l/m 0,8 km/h (0 Bft) SO 135 0 min 0,0 UV-I 11,9 C 18,0 C 2,6 km/h (1 Bft)
10.09.2013 10:20 15,8 C 22,0 C 15,5 C 18,4 C 18,4 C 2,6 C 77 % 84 % 68 % 1012,3 hPa 0,0 l/m 1,4 km/h (1 Bft) O-SO 112 0 min 0,0 UV-I 11,8 C 18,4 C 2,4 km/h (1 Bft)
10.09.2013 10:25 16,0 C 22,0 C 15,4 C 18,5 C 18,5 C 2,5 C 76 % 84 % 66 % 1012,3 hPa 0,0 l/m 2,3 km/h (1 Bft) S 180 0 min 0,0 UV-I 11,8 C 18,5 C 3,9 km/h (1 Bft)
10.09.2013 10:30 16,1 C 22,1 C 15,4 C 18,1 C 18,1 C 2,0 C 77 % 84 % 53 % 1012,3 hPa 0,0 l/m 1,4 km/h (1 Bft) S 180 0 min 0,0 UV-I 12,1 C 18,1 C 1,6 km/h (1 Bft)
10.09.2013 10:35 16,1 C 22,0 C 15,3 C 17,7 C 17,7 C 1,6 C 76 % 84 % 42 % 1012,1 hPa 0,0 l/m 1,1 km/h (1 Bft) SW 225 0 min 0,0 UV-I 11,9 C 17,7 C 0,0 km/h (0 Bft)
10.09.2013 10:40 16,0 C 22,1 C 15,2 C 17,4 C 17,4 C 1,4 C 76 % 84 % 37 % 1012,1 hPa 0,0 l/m 1,1 km/h (1 Bft) N-NO 22 0 min 0,0 UV-I 11,8 C 17,4 C 0,0 km/h (0 Bft)
10.09.2013 10:45 16,1 C 22,1 C 15,5 C 17,5 C 17,5 C 1,4 C 76 % 83 % 37 % 1012,1 hPa 0,0 l/m 1,4 km/h (1 Bft) S-SO 157 0 min 0,0 UV-I 11,9 C 17,5 C 1,9 km/h (1 Bft)
10.09.2013 10:50 16,3 C 22,1 C 15,7 C 18,0 C 18,0 C 1,7 C 75 % 83 % 45 % 1012,1 hPa 0,0 l/m 1,9 km/h (1 Bft) SO 135 0 min 0,0 UV-I 11,9 C 18,0 C 4,5 km/h (1 Bft)
10.09.2013 10:55 16,3 C 22,1 C 15,9 C 18,5 C 18,5 C 2,2 C 76 % 83 % 58 % 1012,2 hPa 0,0 l/m 2,3 km/h (1 Bft) S 180 0 min 0,0 UV-I 12,1 C 18,5 C 4,3 km/h (1 Bft)
10.09.2013 11:00 16,5 C 22,1 C 15,9 C 18,5 C 18,5 C 2,0 C 75 % 83 % 53 % 1012,2 hPa 0,0 l/m 2,4 km/h (1 Bft) O-NO 67 0 min 0,0 UV-I 12,1 C 18,5 C 2,4 km/h (1 Bft)
10.09.2013 11:05 16,4 C 22,1 C 15,9 C 18,5 C 18,5 C 2,1 C 75 % 82 % 55 % 1012,2 hPa 0,0 l/m 1,8 km/h (1 Bft) NW 315 0 min 0,0 UV-I 12,0 C 18,5 C 0,0 km/h (0 Bft)
10.09.2013 11:10 16,5 C 22,1 C 16,0 C 18,5 C 18,5 C 2,0 C 75 % 82 % 53 % 1012,2 hPa 0,0 l/m 1,9 km/h (1 Bft) NO 45 0 min 0,0 UV-I 12,1 C 18,5 C 12,7 km/h (3 Bft)
10.09.2013 11:15 16,4 C 22,1 C 16,0 C 18,5 C 18,5 C 2,1 C 74 % 81 % 55 % 1012,0 hPa 0,0 l/m 2,7 km/h (1 Bft) O-SO 112 0 min 0,0 UV-I 11,8 C 18,5 C 2,7 km/h (1 Bft)
10.09.2013 11:20 16,5 C 22,1 C 16,3 C 18,5 C 18,5 C 2,0 C 75 % 81 % 53 % 1012,0 hPa 0,0 l/m 2,1 km/h (1 Bft) SW 225 0 min 0,0 UV-I 12,1 C 18,5 C 4,0 km/h (1 Bft)
10.09.2013 11:25 16,5 C 22,1 C 16,4 C 18,6 C 18,6 C 2,1 C 75 % 82 % 55 % 1012,0 hPa 0,0 l/m 1,3 km/h (1 Bft) W-SW 247 0 min 0,0 UV-I 12,1 C 18,6 C 5,0 km/h (1 Bft)
10.09.2013 11:30 16,7 C 22,1 C 16,3 C 18,5 C 18,5 C 1,8 C 75 % 81 % 47 % 1012,0 hPa 0,0 l/m 1,4 km/h (1 Bft) W 270 0 min 0,0 UV-I 12,2 C 18,5 C 2,6 km/h (1 Bft)
10.09.2013 11:35 16,8 C 22,1 C 16,4 C 18,8 C 18,8 C 2,0 C 75 % 82 % 53 % 1011,9 hPa 0,0 l/m 1,9 km/h (1 Bft) S-SO 157 0 min 0,0 UV-I 12,3 C 18,8 C 0,0 km/h (0 Bft)
10.09.2013 11:40 16,8 C 22,1 C 16,7 C 19,2 C 19,2 C 2,4 C 74 % 81 % 63 % 1011,9 hPa 0,0 l/m 2,1 km/h (1 Bft) N-NO 22 0 min 0,0 UV-I 12,1 C 19,2 C 4,0 km/h (1 Bft)
10.09.2013 11:45 17,0 C 22,1 C 16,8 C 19,3 C 19,3 C 2,3 C 74 % 81 % 61 % 1011,9 hPa 0,0 l/m 2,4 km/h (1 Bft) SW 225 0 min 0,0 UV-I 12,3 C 19,3 C 6,1 km/h (2 Bft)
10.09.2013 11:50 17,1 C 22,1 C 16,8 C 19,4 C 19,4 C 2,3 C 74 % 80 % 61 % 1011,9 hPa 0,0 l/m 2,6 km/h (1 Bft) SO 135 0 min 0,0 UV-I 12,4 C 19,4 C 0,0 km/h (0 Bft)
10.09.2013 11:55 17,1 C 22,2 C 16,8 C 19,2 C 19,2 C 2,1 C 73 % 80 % 55 % 1012,0 hPa 0,0 l/m 2,6 km/h (1 Bft) O-SO 112 0 min 0,0 UV-I 12,2 C 19,2 C 1,9 km/h (1 Bft)
10.09.2013 12:00 17,1 C 22,2 C 16,4 C 18,6 C 18,6 C 1,5 C 73 % 80 % 39 % 1012,0 hPa 0,0 l/m 2,7 km/h (1 Bft) S-SO 157 0 min 0,0 UV-I 12,2 C 18,6 C 3,5 km/h (1 Bft)
10.09.2013 12:05 16,9 C 22,2 C 16,3 C 18,4 C 18,4 C 1,5 C 72 % 80 % 39 % 1012,0 hPa 0,0 l/m 3,5 km/h (1 Bft) SO 135 0 min 0,0 UV-I 11,8 C 18,4 C 12,2 km/h (2 Bft)
10.09.2013 12:10 16,8 C 22,2 C 16,3 C 17,8 C 17,8 C 1,0 C 73 % 80 % 26 % 1012,0 hPa 0,0 l/m 3,2 km/h (1 Bft) S 180 0 min 0,0 UV-I 11,9 C 17,8 C 14,3 km/h (3 Bft)
10.09.2013 12:15 16,7 C 22,2 C 16,0 C 17,5 C 17,5 C 0,8 C 73 % 80 % 21 % 1012,1 hPa 0,0 l/m 2,7 km/h (1 Bft) W-SW 247 0 min 0,0 UV-I 11,8 C 17,5 C 6,8 km/h (2 Bft)
10.09.2013 12:20 16,5 C 22,2 C 15,9 C 17,1 C 17,1 C 0,6 C 73 % 80 % 16 % 1012,1 hPa 0,0 l/m 2,7 km/h (1 Bft) W-NW 292 0 min 0,0 UV-I 11,6 C 17,1 C 2,9 km/h (1 Bft)
10.09.2013 12:25 16,5 C 22,2 C 15,8 C 17,0 C 17,0 C 0,5 C 73 % 79 % 13 % 1012,1 hPa 0,0 l/m 2,6 km/h (1 Bft) O-SO 112 0 min 0,0 UV-I 11,6 C 17,0 C 3,1 km/h (1 Bft)
10.09.2013 12:30 16,5 C 22,2 C 16,1 C 17,1 C 17,1 C 0,6 C 74 % 80 % 16 % 1012,1 hPa 0,0 l/m 2,6 km/h (1 Bft) O 90 0 min 0,0 UV-I 11,8 C 17,1 C 4,8 km/h (1 Bft)
10.09.2013 12:35 16,5 C 22,2 C 16,2 C 17,6 C 17,6 C 1,1 C 74 % 80 % 29 % 1012,1 hPa 0,0 l/m 2,6 km/h (1 Bft) NW 315 0 min 0,0 UV-I 11,8 C 17,6 C 0,0 km/h (0 Bft)
10.09.2013 12:40 16,6 C 22,2 C 16,5 C 18,2 C 18,2 C 1,6 C 74 % 80 % 42 % 1012,1 hPa 0,0 l/m 1,9 km/h (1 Bft) S-SO 157 0 min 0,0 UV-I 11,9 C 18,2 C 4,0 km/h (1 Bft)
10.09.2013 12:45 16,8 C 22,2 C 16,6 C 18,8 C 18,8 C 2,0 C 75 % 80 % 53 % 1012,1 hPa 0,0 l/m 1,9 km/h (1 Bft) N-NO 22 0 min 0,0 UV-I 12,3 C 18,8 C 1,9 km/h (1 Bft)
10.09.2013 12:50 17,2 C 22,2 C 17,1 C 20,6 C 20,6 C 3,4 C 75 % 80 % 89 % 1012,1 hPa 0,0 l/m 1,9 km/h (1 Bft) SW 225 5 min 0,0 UV-I 12,7 C 20,6 C 0,0 km/h (0 Bft)
10.09.2013 12:55 17,6 C 22,2 C 17,5 C 22,0 C 22,0 C 4,4 C 73 % 79 % 100 % 1011,9 hPa 0,0 l/m 2,4 km/h (1 Bft) O-SO 112 5 min 0,0 UV-I 12,7 C 22,0 C 2,3 km/h (1 Bft)
10.09.2013 13:00 17,8 C 22,2 C 17,4 C 22,4 C 22,4 C 4,6 C 71 % 78 % 100 % 1011,9 hPa 0,0 l/m 3,1 km/h (1 Bft) SW 225 5 min 0,0 UV-I 12,5 C 22,4 C 4,7 km/h (1 Bft)
10.09.2013 13:05 17,9 C 22,3 C 17,3 C 21,9 C 21,9 C 4,0 C 71 % 78 % 100 % 1011,9 hPa 0,0 l/m 2,7 km/h (1 Bft) SO 135 5 min 0,0 UV-I 12,6 C 21,9 C 2,9 km/h (1 Bft)
10.09.2013 13:10 17,9 C 22,3 C 17,5 C 22,3 C 22,3 C 4,4 C 71 % 78 % 100 % 1011,9 hPa 0,0 l/m 2,9 km/h (1 Bft) S-SW 202 5 min 0,0 UV-I 12,6 C 22,3 C 5,1 km/h (1 Bft)
10.09.2013 13:15 18,0 C 22,3 C 17,5 C 22,5 C 22,5 C 4,5 C 71 % 77 % 100 % 1011,6 hPa 0,0 l/m 2,3 km/h (1 Bft) SW 225 5 min 0,0 UV-I 12,7 C 22,5 C 2,1 km/h (1 Bft)
10.09.2013 13:20 18,1 C 22,3 C 17,6 C 22,5 C 22,5 C 4,4 C 69 % 76 % 100 % 1011,6 hPa 0,0 l/m 2,6 km/h (1 Bft) S-SW 202 5 min 0,0 UV-I 12,3 C 22,5 C 3,9 km/h (1 Bft)
10.09.2013 13:25 18,1 C 22,3 C 17,6 C 22,2 C 22,2 C 4,1 C 69 % 76 % 100 % 1011,6 hPa 0,0 l/m 3,4 km/h (1 Bft) O-SO 112 5 min 0,0 UV-I 12,3 C 22,2 C 4,2 km/h (1 Bft)
10.09.2013 13:30 18,1 C 22,2 C 17,6 C 21,8 C 21,8 C 3,7 C 68 % 75 % 97 % 1011,6 hPa 0,0 l/m 2,9 km/h (1 Bft) N-NW 337 5 min 0,0 UV-I 12,1 C 21,8 C 1,9 km/h (1 Bft)
10.09.2013 13:35 18,3 C 22,2 C 17,9 C 21,9 C 21,9 C 3,6 C 68 % 75 % 95 % 1011,8 hPa 0,0 l/m 2,9 km/h (1 Bft) SW 225 5 min 0,0 UV-I 12,3 C 21,9 C 2,4 km/h (1 Bft)
10.09.2013 13:40 18,5 C 22,2 C 18,4 C 23,6 C 23,6 C 5,1 C 69 % 74 % 100 % 1011,8 hPa 0,0 l/m 2,4 km/h (1 Bft) NW 315 5 min 0,0 UV-I 12,7 C 23,6 C 1,9 km/h (1 Bft)
10.09.2013 13:45 18,7 C 22,2 C 18,3 C 24,1 C 24,1 C 5,4 C 68 % 73 % 100 % 1011,8 hPa 0,0 l/m 1,9 km/h (1 Bft) SW 225 5 min 0,0 UV-I 12,7 C 24,1 C 2,4 km/h (1 Bft)
10.09.2013 13:50 18,7 C 22,2 C 18,4 C 23,1 C 23,1 C 4,4 C 65 % 71 % 100 % 1011,8 hPa 0,0 l/m 2,4 km/h (1 Bft) SW 225 5 min 0,0 UV-I 12,0 C 23,1 C 3,1 km/h (1 Bft)
10.09.2013 13:55 18,5 C 22,2 C 18,2 C 22,5 C 22,5 C 4,0 C 66 % 72 % 100 % 1011,9 hPa 0,0 l/m 3,1 km/h (1 Bft) NW 315 5 min 0,0 UV-I 12,0 C 22,5 C 1,6 km/h (1 Bft)
10.09.2013 14:00 18,5 C 22,3 C 18,3 C 22,4 C 22,4 C 3,9 C 66 % 72 % 100 % 1011,9 hPa 0,0 l/m 4,0 km/h (1 Bft) SO 135 5 min 0,0 UV-I 12,0 C 22,4 C 3,4 km/h (1 Bft)
10.09.2013 14:05 18,6 C 22,3 C 18,3 C 22,0 C 22,0 C 3,4 C 66 % 71 % 89 % 1011,9 hPa 0,0 l/m 3,5 km/h (1 Bft) O-NO 67 5 min 0,0 UV-I 12,1 C 22,0 C 2,6 km/h (1 Bft)
10.09.2013 14:10 18,7 C 22,3 C 18,7 C 22,8 C 22,8 C 4,1 C 65 % 71 % 100 % 1011,9 hPa 0,0 l/m 2,9 km/h (1 Bft) S-SO 157 5 min 0,0 UV-I 12,0 C 22,8 C 2,3 km/h (1 Bft)
10.09.2013 14:15 18,8 C 22,3 C 18,7 C 23,3 C 23,3 C 4,5 C 64 % 70 % 100 % 1012,1 hPa 0,0 l/m 3,1 km/h (1 Bft) O 90 5 min 0,0 UV-I 11,8 C 23,3 C 4,7 km/h (1 Bft)
10.09.2013 14:20 18,9 C 22,3 C 18,6 C 23,2 C 23,2 C 4,3 C 65 % 70 % 100 % 1012,1 hPa 0,0 l/m 2,1 km/h (1 Bft) O-SO 112 5 min 0,0 UV-I 12,2 C 23,2 C 9,0 km/h (2 Bft)
10.09.2013 14:25 18,9 C 22,3 C 18,6 C 22,9 C 22,9 C 4,0 C 65 % 69 % 100 % 1012,1 hPa 0,0 l/m 2,1 km/h (1 Bft) S-SO 157 5 min 0,0 UV-I 12,2 C 22,9 C 1,9 km/h (1 Bft)
10.09.2013 14:30 18,7 C 22,3 C 18,1 C 21,6 C 21,6 C 2,9 C 64 % 70 % 76 % 1012,1 hPa 0,0 l/m 2,1 km/h (1 Bft) S 180 0 min 0,0 UV-I 11,7 C 21,6 C 4,0 km/h (1 Bft)
10.09.2013 14:35 18,4 C 22,3 C 17,9 C 20,6 C 20,6 C 2,2 C 65 % 70 % 58 % 1011,8 hPa 0,0 l/m 2,7 km/h (1 Bft) S 180 0 min 0,0 UV-I 11,7 C 20,6 C 4,8 km/h (1 Bft)
10.09.2013 14:40 17,9 C 22,3 C 17,4 C 19,3 C 19,3 C 1,4 C 67 % 72 % 37 % 1011,8 hPa 0,0 l/m 4,0 km/h (1 Bft) S-SW 202 0 min 0,0 UV-I 11,7 C 19,3 C 5,3 km/h (1 Bft)
10.09.2013 14:45 17,6 C 22,4 C 17,4 C 18,8 C 18,8 C 1,2 C 68 % 73 % 32 % 1011,8 hPa 0,0 l/m 4,0 km/h (1 Bft) W 270 0 min 0,0 UV-I 11,6 C 18,8 C 4,8 km/h (1 Bft)
10.09.2013 14:50 17,5 C 22,4 C 17,3 C 18,5 C 18,5 C 1,0 C 69 % 73 % 26 % 1011,8 hPa 0,0 l/m 3,9 km/h (1 Bft) W-SW 247 0 min 0,0 UV-I 11,7 C 18,5 C 6,8 km/h (2 Bft)
10.09.2013 14:55 17,3 C 22,4 C 17,1 C 18,1 C 18,1 C 0,8 C 70 % 74 % 21 % 1012,0 hPa 0,0 l/m 3,2 km/h (1 Bft) O 90 0 min 0,0 UV-I 11,8 C 18,1 C 1,8 km/h (1 Bft)
10.09.2013 15:00 17,3 C 22,4 C 16,9 C 17,6 C 17,6 C 0,3 C 70 % 75 % 8 % 1012,0 hPa 0,0 l/m 2,6 km/h (1 Bft) W-SW 247 0 min 0,0 UV-I 11,8 C 17,6 C 4,8 km/h (1 Bft)
10.09.2013 15:05 17,2 C 22,4 C 17,1 C 17,8 C 17,8 C 0,6 C 71 % 75 % 16 % 1012,0 hPa 0,0 l/m 3,1 km/h (1 Bft) S 180 0 min 0,0 UV-I 11,9 C 17,8 C 2,9 km/h (1 Bft)
10.09.2013 15:10 17,5 C 22,5 C 17,7 C 19,4 C 19,4 C 1,9 C 72 % 76 % 50 % 1012,0 hPa 0,0 l/m 4,2 km/h (1 Bft) SW 225 0 min 0,0 UV-I 12,4 C 19,4 C 4,5 km/h (1 Bft)
10.09.2013 15:15 17,9 C 22,4 C 18,0 C 20,6 C 20,6 C 2,7 C 71 % 75 % 71 % 1011,9 hPa 0,0 l/m 3,4 km/h (1 Bft) S-SW 202 0 min 0,0 UV-I 12,6 C 20,6 C 3,7 km/h (1 Bft)
10.09.2013 15:20 18,1 C 22,4 C 18,0 C 21,1 C 21,1 C 3,0 C 70 % 74 % 79 % 1011,9 hPa 0,0 l/m 3,1 km/h (1 Bft) S 180 0 min 0,0 UV-I 12,5 C 21,1 C 3,7 km/h (1 Bft)
10.09.2013 15:25 18,1 C 22,4 C 17,9 C 20,6 C 20,6 C 2,5 C 69 % 74 % 66 % 1011,9 hPa 0,0 l/m 3,5 km/h (1 Bft) W-SW 247 0 min 0,0 UV-I 12,3 C 20,6 C 6,4 km/h (2 Bft)
10.09.2013 15:30 18,1 C 22,4 C 17,7 C 19,7 C 19,7 C 1,6 C 66 % 73 % 42 % 1011,9 hPa 0,0 l/m 5,0 km/h (1 Bft) S 180 0 min 0,0 UV-I 11,6 C 19,7 C 11,7 km/h (2 Bft)
10.09.2013 15:35 17,8 C 22,4 C 17,5 C 19,2 C 19,2 C 1,4 C 64 % 72 % 37 % 1011,8 hPa 0,0 l/m 5,6 km/h (1 Bft) NW 315 0 min 0,0 UV-I 10,9 C 19,2 C 2,7 km/h (1 Bft)
10.09.2013 15:40 17,6 C 22,4 C 17,3 C 18,7 C 18,7 C 1,1 C 65 % 72 % 29 % 1011,8 hPa 0,0 l/m 6,8 km/h (2 Bft) SW 225 0 min 0,0 UV-I 10,9 C 18,7 C 13,0 km/h (3 Bft)
10.09.2013 15:45 17,2 C 22,5 C 17,0 C 18,4 C 18,4 C 1,2 C 66 % 71 % 32 % 1011,8 hPa 0,0 l/m 6,4 km/h (2 Bft) S-SO 157 0 min 0,0 UV-I 10,8 C 18,4 C 6,3 km/h (2 Bft)
10.09.2013 15:50 16,8 C 22,5 C 16,7 C 17,7 C 17,7 C 0,9 C 67 % 72 % 24 % 1011,8 hPa 0,0 l/m 6,6 km/h (2 Bft) SW 225 0 min 0,0 UV-I 10,6 C 17,7 C 16,9 km/h (3 Bft)
10.09.2013 15:55 16,7 C 22,5 C 16,4 C 17,2 C 17,2 C 0,5 C 67 % 72 % 13 % 1012,0 hPa 0,0 l/m 6,1 km/h (2 Bft) S-SO 157 0 min 0,0 UV-I 10,5 C 17,2 C 3,1 km/h (1 Bft)
10.09.2013 16:00 16,4 C 22,5 C 16,2 C 16,8 C 16,8 C 0,4 C 68 % 73 % 11 % 1012,0 hPa 0,0 l/m 4,8 km/h (1 Bft) W 270 0 min 0,0 UV-I 10,5 C 16,8 C 5,5 km/h (1 Bft)
10.09.2013 16:05 16,4 C 22,5 C 16,3 C 16,9 C 16,9 C 0,5 C 68 % 74 % 13 % 1012,0 hPa 0,0 l/m 4,3 km/h (1 Bft) S 180 0 min 0,0 UV-I 10,5 C 16,9 C 5,8 km/h (2 Bft)
10.09.2013 16:10 16,5 C 22,5 C 16,4 C 17,3 C 17,3 C 0,8 C 68 % 73 % 21 % 1012,0 hPa 0,0 l/m 5,0 km/h (1 Bft) W-NW 292 0 min 0,0 UV-I 10,6 C 17,3 C 2,1 km/h (1 Bft)
10.09.2013 16:15 16,4 C 22,5 C 16,6 C 17,7 C 17,7 C 1,3 C 68 % 73 % 34 % 1012,6 hPa 0,0 l/m 5,8 km/h (2 Bft) SW 225 0 min 0,0 UV-I 10,5 C 17,7 C 10,9 km/h (2 Bft)
10.09.2013 16:20 16,5 C 22,5 C 16,5 C 17,8 C 17,8 C 1,3 C 66 % 72 % 34 % 1012,6 hPa 0,0 l/m 6,3 km/h (2 Bft) S 180 0 min 0,0 UV-I 10,1 C 17,8 C 3,7 km/h (1 Bft)
10.09.2013 16:25 16,4 C 22,5 C 16,4 C 17,7 C 17,7 C 1,3 C 66 % 72 % 34 % 1012,6 hPa 0,0 l/m 6,0 km/h (2 Bft) W 270 0 min 0,0 UV-I 10,0 C 17,7 C 7,1 km/h (2 Bft)
10.09.2013 16:30 16,3 C 22,5 C 16,3 C 17,5 C 17,5 C 1,2 C 67 % 72 % 32 % 1012,6 hPa 0,0 l/m 5,6 km/h (1 Bft) W 270 0 min 0,0 UV-I 10,2 C 17,5 C 8,5 km/h (2 Bft)
10.09.2013 16:35 16,2 C 22,5 C 16,3 C 17,4 C 17,4 C 1,2 C 67 % 72 % 32 % 1012,6 hPa 0,0 l/m 6,3 km/h (2 Bft) W-SW 247 0 min 0,0 UV-I 10,1 C 17,4 C 5,5 km/h (1 Bft)
10.09.2013 16:40 16,2 C 22,5 C 16,3 C 17,3 C 17,3 C 1,1 C 67 % 72 % 29 % 1012,6 hPa 0,0 l/m 6,4 km/h (2 Bft) SW 225 0 min 0,0 UV-I 10,1 C 17,3 C 7,9 km/h (2 Bft)
10.09.2013 16:45 16,1 C 22,5 C 16,0 C 17,0 C 17,0 C 0,9 C 66 % 72 % 24 % 1012,6 hPa 0,0 l/m 6,3 km/h (2 Bft) W-SW 247 0 min 0,0 UV-I 9,7 C 17,0 C 8,7 km/h (2 Bft)
10.09.2013 16:50 16,1 C 22,5 C 15,8 C 16,6 C 16,6 C 0,5 C 65 % 71 % 13 % 1012,6 hPa 0,0 l/m 7,2 km/h (2 Bft) SW 225 0 min 0,0 UV-I 9,5 C 16,6 C 13,2 km/h (3 Bft)
10.09.2013 16:55 16,0 C 22,5 C 15,7 C 16,4 C 16,4 C 0,4 C 66 % 71 % 11 % 1012,5 hPa 0,0 l/m 7,2 km/h (2 Bft) W 270 0 min 0,0 UV-I 9,7 C 16,4 C 6,4 km/h (2 Bft)
10.09.2013 17:00 15,9 C 22,5 C 15,6 C 16,3 C 16,3 C 0,4 C 65 % 71 % 11 % 1012,5 hPa 0,0 l/m 6,4 km/h (2 Bft) SW 225 0 min 0,0 UV-I 9,3 C 16,3 C 7,2 km/h (2 Bft)
10.09.2013 17:05 15,9 C 22,5 C 15,6 C 16,2 C 16,2 C 0,3 C 65 % 71 % 8 % 1012,5 hPa 0,0 l/m 6,4 km/h (2 Bft) S 180 0 min 0,0 UV-I 9,3 C 16,2 C 15,3 km/h (3 Bft)
10.09.2013 17:10 15,7 C 22,5 C 15,5 C 16,0 C 16,0 C 0,3 C 64 % 70 % 8 % 1012,5 hPa 0,0 l/m 7,7 km/h (2 Bft) W-SW 247 0 min 0,0 UV-I 8,9 C 16,0 C 6,4 km/h (2 Bft)
10.09.2013 17:15 15,6 C 22,5 C 15,3 C 15,8 C 15,7 C 0,2 C 63 % 70 % 5 % 1012,4 hPa 0,0 l/m 8,0 km/h (2 Bft) W-SW 247 0 min 0,0 UV-I 8,6 C 15,7 C 9,2 km/h (2 Bft)
10.09.2013 17:20 15,5 C 22,5 C 15,1 C 15,5 C 15,4 C 0,0 C 63 % 70 % 0 % 1012,4 hPa 0,0 l/m 7,2 km/h (2 Bft) S 180 0 min 0,0 UV-I 8,5 C 15,4 C 8,7 km/h (2 Bft)
10.09.2013 17:25 15,3 C 22,5 C 15,1 C 15,3 C 15,3 C 0,0 C 64 % 71 % 0 % 1012,4 hPa 0,0 l/m 6,4 km/h (2 Bft) SW 225 0 min 0,0 UV-I 8,5 C 15,3 C 7,2 km/h (2 Bft)
10.09.2013 17:30 15,1 C 22,4 C 14,8 C 15,1 C 15,0 C 0,0 C 64 % 70 % 0 % 1012,4 hPa 0,0 l/m 7,1 km/h (2 Bft) W-SW 247 0 min 0,0 UV-I 8,3 C 15,0 C 8,2 km/h (2 Bft)
10.09.2013 17:35 15,0 C 22,4 C 14,7 C 14,9 C 14,6 C 0,0 C 65 % 71 % 0 % 1012,9 hPa 0,0 l/m 7,6 km/h (2 Bft) SW 225 0 min 0,0 UV-I 8,5 C 14,6 C 8,4 km/h (2 Bft)
10.09.2013 17:40 14,9 C 22,4 C 14,7 C 14,8 C 14,7 C 0,0 C 65 % 72 % 0 % 1012,9 hPa 0,0 l/m 5,8 km/h (2 Bft) W-SW 247 0 min 0,0 UV-I 8,4 C 14,7 C 6,3 km/h (2 Bft)
10.09.2013 17:45 14,8 C 22,4 C 14,6 C 14,8 C 14,7 C 0,0 C 65 % 72 % 0 % 1012,9 hPa 0,0 l/m 4,5 km/h (1 Bft) S 180 0 min 0,0 UV-I 8,3 C 14,7 C 4,2 km/h (1 Bft)
10.09.2013 17:50 14,7 C 22,4 C 14,6 C 14,7 C 14,7 C 0,0 C 66 % 72 % 0 % 1012,9 hPa 0,0 l/m 3,2 km/h (1 Bft) W 270 0 min 0,0 UV-I 8,4 C 14,7 C 3,1 km/h (1 Bft)
10.09.2013 17:55 14,7 C 22,4 C 14,6 C 14,8 C 14,8 C 0,1 C 66 % 72 % 3 % 1013,1 hPa 0,0 l/m 3,2 km/h (1 Bft) W-SW 247 0 min 0,0 UV-I 8,4 C 14,8 C 2,9 km/h (1 Bft)
10.09.2013 18:00 14,9 C 22,4 C 15,1 C 16,7 C 16,7 C 1,8 C 67 % 73 % 47 % 1013,1 hPa 0,0 l/m 2,4 km/h (1 Bft) S-SO 157 0 min 0,0 UV-I 8,8 C 16,7 C 0,0 km/h (0 Bft)
10.09.2013 18:05 15,1 C 22,4 C 15,5 C 18,4 C 18,4 C 3,3 C 67 % 72 % 87 % 1013,1 hPa 0,0 l/m 2,4 km/h (1 Bft) SO 135 5 min 0,0 UV-I 9,0 C 18,4 C 6,4 km/h (2 Bft)
10.09.2013 18:10 15,5 C 22,5 C 15,9 C 20,4 C 20,4 C 4,9 C 67 % 71 % 100 % 1013,1 hPa 0,0 l/m 2,1 km/h (1 Bft) NW 315 5 min 0,0 UV-I 9,4 C 20,4 C 3,1 km/h (1 Bft)
10.09.2013 18:15 15,6 C 22,5 C 15,9 C 20,3 C 20,3 C 4,7 C 66 % 70 % 100 % 1013,0 hPa 0,0 l/m 2,1 km/h (1 Bft) O-SO 112 5 min 0,0 UV-I 9,3 C 20,3 C 4,2 km/h (1 Bft)
10.09.2013 18:20 15,7 C 22,5 C 15,9 C 20,8 C 20,8 C 5,1 C 66 % 69 % 100 % 1013,0 hPa 0,0 l/m 1,9 km/h (1 Bft) W-SW 247 5 min 0,0 UV-I 9,4 C 20,8 C 6,4 km/h (2 Bft)
10.09.2013 18:25 15,7 C 22,5 C 15,9 C 20,9 C 20,9 C 5,2 C 65 % 70 % 100 % 1013,0 hPa 0,0 l/m 2,1 km/h (1 Bft) S 180 5 min 0,0 UV-I 9,1 C 20,9 C 2,7 km/h (1 Bft)
10.09.2013 18:30 15,7 C 22,5 C 15,7 C 20,4 C 20,4 C 4,7 C 65 % 69 % 100 % 1013,0 hPa 0,0 l/m 2,1 km/h (1 Bft) SW 225 5 min 0,0 UV-I 9,1 C 20,4 C 3,4 km/h (1 Bft)
10.09.2013 18:35 15,6 C 22,5 C 15,7 C 20,1 C 20,1 C 4,5 C 65 % 70 % 100 % 1013,0 hPa 0,0 l/m 2,1 km/h (1 Bft) W-SW 247 5 min 0,0 UV-I 9,0 C 20,1 C 2,1 km/h (1 Bft)
10.09.2013 18:40 15,6 C 22,5 C 15,5 C 19,4 C 19,4 C 3,8 C 65 % 70 % 100 % 1013,0 hPa 0,0 l/m 2,6 km/h (1 Bft) W-SW 247 5 min 0,0 UV-I 9,0 C 19,4 C 6,0 km/h (2 Bft)
10.09.2013 18:45 15,5 C 22,5 C 15,5 C 19,0 C 19,0 C 3,5 C 65 % 71 % 92 % 1013,0 hPa 0,0 l/m 2,7 km/h (1 Bft) SW 225 5 min 0,0 UV-I 8,9 C 19,0 C 6,4 km/h (2 Bft)
10.09.2013 18:50 15,4 C 22,5 C 15,3 C 18,4 C 18,4 C 3,0 C 65 % 71 % 79 % 1013,0 hPa 0,0 l/m 3,2 km/h (1 Bft) W-SW 247 5 min 0,0 UV-I 8,9 C 18,4 C 3,4 km/h (1 Bft)
10.09.2013 18:55 15,2 C 22,5 C 15,1 C 18,0 C 18,0 C 2,8 C 66 % 71 % 74 % 1013,2 hPa 0,0 l/m 3,2 km/h (1 Bft) S 180 5 min 0,0 UV-I 8,9 C 18,0 C 2,9 km/h (1 Bft)
10.09.2013 19:00 15,1 C 22,4 C 15,1 C 17,4 C 17,4 C 2,3 C 66 % 71 % 61 % 1013,2 hPa 0,0 l/m 2,7 km/h (1 Bft) S-SO 157 5 min 0,0 UV-I 8,8 C 17,4 C 0,0 km/h (0 Bft)
10.09.2013 19:05 15,0 C 22,4 C 14,8 C 17,1 C 17,1 C 2,1 C 66 % 72 % 55 % 1013,2 hPa 0,0 l/m 1,9 km/h (1 Bft) W-NW 292 5 min 0,0 UV-I 8,7 C 17,1 C 2,4 km/h (1 Bft)
10.09.2013 19:10 14,9 C 22,4 C 14,7 C 16,8 C 16,8 C 1,9 C 67 % 72 % 50 % 1013,2 hPa 0,0 l/m 1,3 km/h (1 Bft) W-SW 247 5 min 0,0 UV-I 8,8 C 16,8 C 4,3 km/h (1 Bft)
10.09.2013 19:15 14,7 C 22,4 C 14,4 C 16,0 C 16,0 C 1,3 C 68 % 73 % 34 % 1013,4 hPa 0,0 l/m 1,4 km/h (1 Bft) S 180 5 min 0,0 UV-I 8,9 C 16,0 C 0,0 km/h (0 Bft)
10.09.2013 19:20 14,5 C 22,4 C 14,1 C 14,7 C 14,7 C 0,2 C 68 % 74 % 5 % 1013,4 hPa 0,0 l/m 1,4 km/h (1 Bft) SW 225 0 min 0,0 UV-I 8,7 C 14,7 C 0,0 km/h (0 Bft)
10.09.2013 19:25 14,3 C 22,4 C 13,9 C 14,2 C 14,0 C 0,0 C 68 % 74 % 0 % 1013,4 hPa 0,0 l/m 1,1 km/h (1 Bft) SW 225 0 min 0,0 UV-I 8,5 C 14,0 C 2,4 km/h (1 Bft)
10.09.2013 19:30 14,0 C 22,4 C 13,7 C 13,7 C 13,2 C 0,0 C 69 % 75 % 0 % 1013,4 hPa 0,0 l/m 0,8 km/h (0 Bft) W 270 0 min 0,0 UV-I 8,4 C 13,2 C 1,8 km/h (1 Bft)
10.09.2013 19:35 13,8 C 22,4 C 13,5 C 13,4 C 12,7 C 0,0 C 70 % 75 % 0 % 1013,8 hPa 0,0 l/m 0,6 km/h (0 Bft) SW 225 0 min 0,0 UV-I 8,4 C 12,7 C 0,0 km/h (0 Bft)
10.09.2013 19:40 13,6 C 22,4 C 13,3 C 13,1 C 12,1 C 0,0 C 71 % 75 % 0 % 1013,8 hPa 0,0 l/m 0,0 km/h (0 Bft) N-NW 337 0 min 0,0 UV-I 8,4 C 12,1 C 0,0 km/h (0 Bft)
10.09.2013 19:45 13,4 C 22,4 C 13,0 C 12,8 C 11,7 C 0,0 C 71 % 76 % 0 % 1013,8 hPa 0,0 l/m 0,0 km/h (0 Bft) S 180 0 min 0,0 UV-I 8,3 C 11,7 C 0,0 km/h (0 Bft)
10.09.2013 19:50 13,0 C 22,5 C 12,7 C 12,5 C 11,4 C 0,0 C 72 % 76 % 0 % 1013,8 hPa 0,0 l/m 0,0 km/h (0 Bft) SO 135 0 min 0,0 UV-I 8,1 C 11,4 C 0,0 km/h (0 Bft)
10.09.2013 19:55 12,9 C 22,5 C 12,5 C 12,3 C 11,2 C 0,0 C 73 % 77 % 0 % 1013,7 hPa 0,0 l/m 0,0 km/h (0 Bft) NO 45 0 min 0,0 UV-I 8,2 C 11,2 C 0,0 km/h (0 Bft)
10.09.2013 20:00 12,7 C 22,5 C 12,4 C 12,1 C 10,9 C 0,0 C 73 % 77 % 0 % 1013,7 hPa 0,0 l/m 0,0 km/h (0 Bft) SW 225 0 min 0,0 UV-I 8,0 C 10,9 C 2,1 km/h (1 Bft)
10.09.2013 20:05 12,5 C 22,5 C 12,3 C 11,9 C 10,8 C 0,0 C 74 % 77 % 0 % 1013,7 hPa 0,0 l/m 0,2 km/h (0 Bft) SO 135 0 min 0,0 UV-I 8,0 C 10,8 C 0,0 km/h (0 Bft)
10.09.2013 20:10 12,3 C 22,5 C 12,3 C 11,8 C 10,7 C 0,0 C 74 % 77 % 0 % 1013,7 hPa 0,0 l/m 0,2 km/h (0 Bft) S 180 0 min 0,0 UV-I 7,8 C 10,7 C 0,0 km/h (0 Bft)
10.09.2013 20:15 12,3 C 22,5 C 12,2 C 11,8 C 10,7 C 0,0 C 74 % 77 % 0 % 1014,0 hPa 0,0 l/m 0,0 km/h (0 Bft) W-SW 247 0 min 0,0 UV-I 7,8 C 10,7 C 0,0 km/h (0 Bft)
10.09.2013 20:20 12,1 C 22,5 C 12,3 C 11,6 C 10,7 C 0,0 C 74 % 78 % 0 % 1014,0 hPa 0,0 l/m 0,5 km/h (0 Bft) S-SW 202 0 min 0,0 UV-I 7,6 C 10,7 C 3,1 km/h (1 Bft)
10.09.2013 20:25 12,1 C 22,5 C 12,3 C 11,7 C 10,8 C 0,0 C 75 % 78 % 0 % 1014,0 hPa 0,0 l/m 0,8 km/h (0 Bft) NW 315 0 min 0,0 UV-I 7,8 C 10,8 C 1,9 km/h (1 Bft)
10.09.2013 20:30 11,9 C 22,4 C 12,3 C 11,6 C 10,9 C 0,0 C 75 % 78 % 0 % 1014,0 hPa 0,0 l/m 1,4 km/h (1 Bft) SW 225 0 min 0,0 UV-I 7,6 C 10,9 C 3,9 km/h (1 Bft)
10.09.2013 20:35 11,9 C 22,4 C 12,1 C 11,6 C 10,9 C 0,0 C 75 % 78 % 0 % 1014,2 hPa 0,0 l/m 1,1 km/h (1 Bft) NO 45 0 min 0,0 UV-I 7,6 C 10,9 C 0,0 km/h (0 Bft)
10.09.2013 20:40 11,9 C 22,4 C 11,9 C 11,5 C 10,8 C 0,0 C 76 % 78 % 0 % 1014,2 hPa 0,0 l/m 0,5 km/h (0 Bft) W-SW 247 0 min 0,0 UV-I 7,8 C 10,8 C 0,0 km/h (0 Bft)
10.09.2013 20:45 11,7 C 22,4 C 11,8 C 11,3 C 10,6 C 0,0 C 76 % 78 % 0 % 1014,2 hPa 0,0 l/m 0,2 km/h (0 Bft) SW 225 0 min 0,0 UV-I 7,6 C 10,6 C 1,9 km/h (1 Bft)
10.09.2013 20:50 11,6 C 22,4 C 11,7 C 11,3 C 10,6 C 0,0 C 76 % 79 % 0 % 1014,2 hPa 0,0 l/m 0,8 km/h (0 Bft) SO 135 0 min 0,0 UV-I 7,5 C 10,6 C 3,4 km/h (1 Bft)
10.09.2013 20:55 11,6 C 22,4 C 11,8 C 11,3 C 10,7 C 0,0 C 76 % 79 % 0 % 1014,6 hPa 0,0 l/m 1,0 km/h (0 Bft) S 180 0 min 0,0 UV-I 7,5 C 10,7 C 0,0 km/h (0 Bft)
10.09.2013 21:00 11,6 C 22,4 C 12,0 C 11,3 C 10,8 C 0,0 C 76 % 79 % 0 % 1014,6 hPa 0,0 l/m 0,3 km/h (0 Bft) W 270 0 min 0,0 UV-I 7,5 C 10,8 C 0,0 km/h (0 Bft)
10.09.2013 21:05 11,6 C 22,4 C 11,9 C 11,3 C 10,8 C 0,0 C 76 % 79 % 0 % 1014,6 hPa 0,0 l/m 0,0 km/h (0 Bft) W 270 0 min 0,0 UV-I 7,5 C 10,8 C 0,0 km/h (0 Bft)
10.09.2013 21:10 11,6 C 22,4 C 11,9 C 11,3 C 10,7 C 0,0 C 76 % 79 % 0 % 1014,6 hPa 0,0 l/m 0,2 km/h (0 Bft) SO 135 0 min 0,0 UV-I 7,5 C 10,7 C 0,0 km/h (0 Bft)
10.09.2013 21:15 11,6 C 22,4 C 11,9 C 11,3 C 10,8 C 0,0 C 76 % 79 % 0 % 1014,2 hPa 0,0 l/m 0,3 km/h (0 Bft) SW 225 0 min 0,0 UV-I 7,5 C 10,8 C 0,0 km/h (0 Bft)
10.09.2013 21:20 11,7 C 22,4 C 11,9 C 11,4 C 10,7 C 0,0 C 76 % 79 % 0 % 1014,2 hPa 0,0 l/m 0,5 km/h (0 Bft) S-SO 157 0 min 0,0 UV-I 7,6 C 10,7 C 0,0 km/h (0 Bft)
10.09.2013 21:25 11,6 C 22,4 C 11,9 C 11,3 C 10,7 C 0,0 C 76 % 79 % 0 % 1014,2 hPa 0,0 l/m 0,5 km/h (0 Bft) W-SW 247 0 min 0,0 UV-I 7,5 C 10,7 C 0,0 km/h (0 Bft)
10.09.2013 21:30 11,6 C 22,4 C 11,9 C 11,3 C 10,6 C 0,0 C 76 % 79 % 0 % 1014,2 hPa 0,0 l/m 0,3 km/h (0 Bft) W-SW 247 0 min 0,0 UV-I 7,5 C 10,6 C 2,1 km/h (1 Bft)
10.09.2013 21:35 11,5 C 22,4 C 11,7 C 11,2 C 10,5 C 0,0 C 76 % 79 % 0 % 1014,5 hPa 0,0 l/m 0,3 km/h (0 Bft) S 180 0 min 0,0 UV-I 7,4 C 10,5 C 3,1 km/h (1 Bft)
10.09.2013 21:40 11,5 C 22,4 C 11,6 C 11,1 C 10,4 C 0,0 C 76 % 79 % 0 % 1014,5 hPa 0,0 l/m 0,6 km/h (0 Bft) SO 135 0 min 0,0 UV-I 7,4 C 10,4 C 2,3 km/h (1 Bft)
10.09.2013 21:45 11,5 C 22,4 C 11,6 C 11,1 C 10,4 C 0,0 C 76 % 79 % 0 % 1014,5 hPa 0,0 l/m 0,5 km/h (0 Bft) S 180 0 min 0,0 UV-I 7,4 C 10,4 C 0,0 km/h (0 Bft)
10.09.2013 21:50 11,3 C 22,4 C 11,5 C 10,9 C 10,2 C 0,0 C 77 % 79 % 0 % 1014,5 hPa 0,0 l/m 0,3 km/h (0 Bft) S-SO 157 0 min 0,0 UV-I 7,4 C 10,2 C 0,0 km/h (0 Bft)
10.09.2013 21:55 11,2 C 22,4 C 11,5 C 10,9 C 10,3 C 0,0 C 77 % 79 % 0 % 1014,6 hPa 0,0 l/m 0,5 km/h (0 Bft) SW 225 0 min 0,0 UV-I 7,3 C 10,3 C 0,0 km/h (0 Bft)
10.09.2013 22:00 11,2 C 22,3 C 11,4 C 10,9 C 10,4 C 0,0 C 78 % 79 % 0 % 1014,6 hPa 0,0 l/m 0,2 km/h (0 Bft) N-NO 22 0 min 0,0 UV-I 7,5 C 10,4 C 0,0 km/h (0 Bft)
10.09.2013 22:05 11,2 C 22,3 C 11,3 C 10,9 C 10,4 C 0,0 C 78 % 80 % 0 % 1014,6 hPa 0,0 l/m 0,2 km/h (0 Bft) SW 225 0 min 0,0 UV-I 7,5 C 10,4 C 0,0 km/h (0 Bft)
10.09.2013 22:10 11,3 C 22,3 C 11,3 C 11,0 C 10,4 C 0,0 C 78 % 80 % 0 % 1014,6 hPa 0,0 l/m 0,3 km/h (0 Bft) S-SW 202 0 min 0,0 UV-I 7,6 C 10,4 C 1,8 km/h (1 Bft)
10.09.2013 22:15 11,2 C 22,3 C 11,5 C 10,9 C 10,4 C 0,0 C 78 % 80 % 0 % 1014,6 hPa 0,0 l/m 0,5 km/h (0 Bft) SO 135 0 min 0,0 UV-I 7,5 C 10,4 C 2,1 km/h (1 Bft)
10.09.2013 22:20 11,2 C 22,3 C 11,4 C 10,9 C 10,4 C 0,0 C 78 % 80 % 0 % 1014,6 hPa 0,0 l/m 0,6 km/h (0 Bft) SW 225 0 min 0,0 UV-I 7,5 C 10,4 C 3,1 km/h (1 Bft)
10.09.2013 22:25 11,2 C 22,3 C 11,5 C 10,9 C 10,4 C 0,0 C 78 % 80 % 0 % 1014,6 hPa 0,0 l/m 0,5 km/h (0 Bft) S-SW 202 0 min 0,0 UV-I 7,5 C 10,4 C 1,6 km/h (1 Bft)
10.09.2013 22:30 11,2 C 22,3 C 11,4 C 10,9 C 10,3 C 0,0 C 78 % 80 % 0 % 1014,6 hPa 0,0 l/m 0,6 km/h (0 Bft) S 180 0 min 0,0 UV-I 7,5 C 10,3 C 2,6 km/h (1 Bft)
10.09.2013 22:35 11,1 C 22,3 C 11,3 C 10,8 C 10,2 C 0,0 C 78 % 80 % 0 % 1014,5 hPa 0,0 l/m 0,8 km/h (0 Bft) NO 45 0 min 0,0 UV-I 7,4 C 10,2 C 3,9 km/h (1 Bft)
10.09.2013 22:40 11,1 C 22,3 C 11,3 C 10,8 C 10,1 C 0,0 C 78 % 80 % 0 % 1014,5 hPa 0,0 l/m 0,6 km/h (0 Bft) S 180 0 min 0,0 UV-I 7,4 C 10,1 C 0,0 km/h (0 Bft)
10.09.2013 22:45 11,1 C 22,3 C 11,3 C 10,8 C 10,3 C 0,0 C 79 % 80 % 0 % 1014,5 hPa 0,0 l/m 0,5 km/h (0 Bft) N-NO 22 0 min 0,0 UV-I 7,6 C 10,3 C 0,0 km/h (0 Bft)
10.09.2013 22:50 11,1 C 22,3 C 11,5 C 10,9 C 10,5 C 0,0 C 79 % 80 % 0 % 1014,5 hPa 0,0 l/m 0,3 km/h (0 Bft) W-SW 247 0 min 0,0 UV-I 7,6 C 10,5 C 0,0 km/h (0 Bft)
10.09.2013 22:55 11,1 C 22,3 C 11,5 C 10,9 C 10,6 C 0,0 C 78 % 80 % 0 % 1014,8 hPa 0,0 l/m 0,3 km/h (0 Bft) S-SO 157 0 min 0,0 UV-I 7,4 C 10,6 C 0,0 km/h (0 Bft)
10.09.2013 23:00 11,1 C 22,3 C 11,5 C 10,9 C 10,5 C 0,0 C 79 % 80 % 0 % 1014,8 hPa 0,0 l/m 0,3 km/h (0 Bft) W 270 0 min 0,0 UV-I 7,6 C 10,5 C 0,0 km/h (0 Bft)
10.09.2013 23:05 11,1 C 22,3 C 11,3 C 10,9 C 10,4 C 0,0 C 78 % 80 % 0 % 1014,8 hPa 0,0 l/m 0,0 km/h (0 Bft) SW 225 0 min 0,0 UV-I 7,4 C 10,4 C 0,0 km/h (0 Bft)
10.09.2013 23:10 11,0 C 22,3 C 11,3 C 10,8 C 10,4 C 0,0 C 79 % 80 % 0 % 1014,8 hPa 0,0 l/m 0,2 km/h (0 Bft) S 180 0 min 0,0 UV-I 7,5 C 10,4 C 1,9 km/h (1 Bft)
10.09.2013 23:15 11,0 C 22,2 C 11,3 C 10,8 C 10,4 C 0,0 C 79 % 80 % 0 % 1014,8 hPa 0,0 l/m 0,5 km/h (0 Bft) S-SO 157 0 min 0,0 UV-I 7,5 C 10,4 C 0,0 km/h (0 Bft)
10.09.2013 23:20 11,0 C 22,2 C 11,4 C 10,9 C 10,6 C 0,0 C 79 % 80 % 0 % 1014,8 hPa 0,0 l/m 0,5 km/h (0 Bft) O-SO 112 0 min 0,0 UV-I 7,5 C 10,6 C 0,0 km/h (0 Bft)
10.09.2013 23:25 11,1 C 22,2 C 11,4 C 11,0 C 10,7 C 0,0 C 79 % 80 % 0 % 1014,8 hPa 0,0 l/m 0,5 km/h (0 Bft) S 180 0 min 0,0 UV-I 7,6 C 10,7 C 0,0 km/h (0 Bft)
10.09.2013 23:30 11,2 C 22,2 C 11,6 C 11,1 C 10,9 C 0,0 C 80 % 80 % 0 % 1014,8 hPa 0,0 l/m 0,5 km/h (0 Bft) N 360 0 min 0,0 UV-I 7,9 C 10,9 C 0,0 km/h (0 Bft)
10.09.2013 23:35 11,3 C 22,2 C 11,6 C 11,2 C 11,0 C 0,0 C 80 % 80 % 0 % 1014,8 hPa 0,0 l/m 0,3 km/h (0 Bft) S-SW 202 0 min 0,0 UV-I 8,0 C 11,0 C 0,0 km/h (0 Bft)
10.09.2013 23:40 11,3 C 22,2 C 11,7 C 11,2 C 11,1 C 0,0 C 80 % 80 % 0 % 1014,8 hPa 0,0 l/m 0,5 km/h (0 Bft) NW 315 0 min 0,0 UV-I 8,0 C 11,1 C 2,3 km/h (1 Bft)
10.09.2013 23:45 11,3 C 22,2 C 11,6 C 11,3 C 11,2 C 0,0 C 80 % 80 % 0 % 1014,8 hPa 0,0 l/m 0,8 km/h (0 Bft) S-SO 157 0 min 0,0 UV-I 8,0 C 11,2 C 0,0 km/h (0 Bft)
10.09.2013 23:50 11,5 C 22,2 C 11,7 C 11,4 C 11,3 C 0,0 C 80 % 80 % 0 % 1014,8 hPa 0,0 l/m 0,6 km/h (0 Bft) S-SW 202 0 min 0,0 UV-I 8,2 C 11,3 C 0,0 km/h (0 Bft)
10.09.2013 23:55 11,4 C 22,2 C 11,7 C 11,4 C 11,4 C 0,0 C 80 % 80 % 0 % 1014,5 hPa 0,0 l/m 0,3 km/h (0 Bft) SW 225 0 min 0,0 UV-I 8,1 C 11,4 C 0,0 km/h (0 Bft)
_ Min-Zeit 01:30 10:10 01:40 01:40 01:40 00:20 17:15 14:25 00:00 13:15 - 00:00 - - - 00:00 01:30 01:40 00:00
Minimum _ 6,4 C 22,0 C 8,3 C 6,4 C 6,4 C 0,0 C 63 % 69 % 0 % 1011,6 hPa - 0,0 km/h (0 Bft) - - - 0,0 UV-I 4,9 C 6,4 C 0,0 km/h (0 Bft)
_ Max-Zeit 14:20 00:00 14:10 13:45 13:45 13:45 02:50 00:00 12:55 00:15 00:00 17:15 - - 06:50 00:00 12:50 13:45 15:50
Maximum _ 18,9 C 23,3 C 18,7 C 24,1 C 24,1 C 5,4 C 92 % 90 % 100 % 1016,7 hPa 0,0 l/m 8,0 km/h
W-SW (2 Bft)
- - 5 min 0,0 UV-I 12,7 C 24,1 C 16,9 km/h
SW (3 Bft)
Durchschnitt _ 12,7 C 22,5 C 13,2 C 13,8 C 13,7 C 1,2 C 79 % 82 % 26 % 1013,5 hPa #0,0 l/m 1,5 km/h (1 Bft) SW - #3:25 h 0,0 UV-I 9,0 C 13,7 C 2,2 km/h (1 Bft)
2013 www.wetterstation-wechselburg.de